sensor_id;sensor_type;location;lat;lon;timestamp;temperature;humidity
3644;DHT22;1838;50.742;7.158;2023-11-18T00:01:34;4.50;99.90
3644;DHT22;1838;50.742;7.158;2023-11-18T00:04:00;4.50;99.90
3644;DHT22;1838;50.742;7.158;2023-11-18T00:06:25;4.60;99.90
3644;DHT22;1838;50.742;7.158;2023-11-18T00:08:51;4.50;99.90
3644;DHT22;1838;50.742;7.158;2023-11-18T00:11:16;4.60;99.90
3644;DHT22;1838;50.742;7.158;2023-11-18T00:13:42;4.60;99.90
3644;DHT22;1838;50.742;7.158;2023-11-18T00:16:08;4.70;99.90
3644;DHT22;1838;50.742;7.158;2023-11-18T00:18:38;4.60;99.90
3644;DHT22;1838;50.742;7.158;2023-11-18T00:21:04;4.60;99.90
3644;DHT22;1838;50.742;7.158;2023-11-18T00:23:30;4.60;99.90
3644;DHT22;1838;50.742;7.158;2023-11-18T00:25:56;4.60;99.90
3644;DHT22;1838;50.742;7.158;2023-11-18T00:28:21;4.60;99.90
3644;DHT22;1838;50.742;7.158;2023-11-18T00:30:47;4.50;99.90
3644;DHT22;1838;50.742;7.158;2023-11-18T00:33:13;4.50;99.90
3644;DHT22;1838;50.742;7.158;2023-11-18T00:35:38;4.50;99.90
3644;DHT22;1838;50.742;7.158;2023-11-18T00:38:04;4.60;99.90
3644;DHT22;1838;50.742;7.158;2023-11-18T00:40:29;4.60;99.90
3644;DHT22;1838;50.742;7.158;2023-11-18T00:42:55;4.60;99.90
3644;DHT22;1838;50.742;7.158;2023-11-18T00:45:21;4.50;99.90
3644;DHT22;1838;50.742;7.158;2023-11-18T00:47:47;4.50;99.90
3644;DHT22;1838;50.742;7.158;2023-11-18T00:50:12;4.50;99.90
3644;DHT22;1838;50.742;7.158;2023-11-18T00:52:38;4.50;99.90
3644;DHT22;1838;50.742;7.158;2023-11-18T00:55:09;4.50;99.90
3644;DHT22;1838;50.742;7.158;2023-11-18T00:57:36;4.50;99.90
3644;DHT22;1838;50.742;7.158;2023-11-18T01:00:05;4.50;99.90
3644;DHT22;1838;50.742;7.158;2023-11-18T01:02:31;4.50;99.90
3644;DHT22;1838;50.742;7.158;2023-11-18T01:04:57;4.60;99.90
3644;DHT22;1838;50.742;7.158;2023-11-18T01:07:23;4.70;99.90
3644;DHT22;1838;50.742;7.158;2023-11-18T01:09:48;4.70;99.90
3644;DHT22;1838;50.742;7.158;2023-11-18T01:12:14;4.80;99.90
3644;DHT22;1838;50.742;7.158;2023-11-18T01:14:40;4.90;99.90
3644;DHT22;1838;50.742;7.158;2023-11-18T01:17:07;5.00;99.90
3644;DHT22;1838;50.742;7.158;2023-11-18T01:19:34;5.00;99.90
3644;DHT22;1838;50.742;7.158;2023-11-18T01:22:00;5.00;99.90
3644;DHT22;1838;50.742;7.158;2023-11-18T01:24:26;5.00;99.90
3644;DHT22;1838;50.742;7.158;2023-11-18T01:26:51;5.00;99.90
3644;DHT22;1838;50.742;7.158;2023-11-18T01:29:17;5.00;99.90
3644;DHT22;1838;50.742;7.158;2023-11-18T01:31:42;5.00;99.90
3644;DHT22;1838;50.742;7.158;2023-11-18T01:34:09;5.00;99.90
3644;DHT22;1838;50.742;7.158;2023-11-18T01:36:34;5.00;99.90
3644;DHT22;1838;50.742;7.158;2023-11-18T01:39:00;5.00;99.90
3644;DHT22;1838;50.742;7.158;2023-11-18T01:41:25;4.90;99.90
3644;DHT22;1838;50.742;7.158;2023-11-18T01:43:51;4.90;99.90
3644;DHT22;1838;50.742;7.158;2023-11-18T01:46:17;4.80;99.90
3644;DHT22;1838;50.742;7.158;2023-11-18T01:48:43;4.80;99.90
3644;DHT22;1838;50.742;7.158;2023-11-18T01:51:09;4.80;99.90
3644;DHT22;1838;50.742;7.158;2023-11-18T01:53:37;4.70;99.90
3644;DHT22;1838;50.742;7.158;2023-11-18T01:56:03;4.80;99.90
3644;DHT22;1838;50.742;7.158;2023-11-18T01:58:30;4.90;99.90
3644;DHT22;1838;50.742;7.158;2023-11-18T02:00:56;4.90;99.90
3644;DHT22;1838;50.742;7.158;2023-11-18T02:03:23;5.00;99.90
3644;DHT22;1838;50.742;7.158;2023-11-18T02:05:48;5.10;99.90
3644;DHT22;1838;50.742;7.158;2023-11-18T02:08:14;5.10;99.90
3644;DHT22;1838;50.742;7.158;2023-11-18T02:10:49;5.20;99.90
3644;DHT22;1838;50.742;7.158;2023-11-18T02:13:22;5.20;99.90
3644;DHT22;1838;50.742;7.158;2023-11-18T02:15:53;5.30;99.90
3644;DHT22;1838;50.742;7.158;2023-11-18T02:18:28;5.30;99.90
3644;DHT22;1838;50.742;7.158;2023-11-18T02:20:55;5.30;99.90
3644;DHT22;1838;50.742;7.158;2023-11-18T02:23:24;5.30;99.90
3644;DHT22;1838;50.742;7.158;2023-11-18T02:25:51;5.40;99.90
3644;DHT22;1838;50.742;7.158;2023-11-18T02:28:18;5.40;99.90
3644;DHT22;1838;50.742;7.158;2023-11-18T02:30:43;5.40;99.90
3644;DHT22;1838;50.742;7.158;2023-11-18T02:35:52;5.50;99.90
3644;DHT22;1838;50.742;7.158;2023-11-18T02:38:27;5.50;99.90
3644;DHT22;1838;50.742;7.158;2023-11-18T02:40:56;5.50;99.90
3644;DHT22;1838;50.742;7.158;2023-11-18T02:43:24;5.50;99.90
3644;DHT22;1838;50.742;7.158;2023-11-18T02:45:53;5.40;99.90
3644;DHT22;1838;50.742;7.158;2023-11-18T02:48:21;5.40;99.90
3644;DHT22;1838;50.742;7.158;2023-11-18T02:50:46;5.50;99.90
3644;DHT22;1838;50.742;7.158;2023-11-18T02:53:12;5.60;99.90
3644;DHT22;1838;50.742;7.158;2023-11-18T02:55:38;5.60;99.90
3644;DHT22;1838;50.742;7.158;2023-11-18T02:58:03;5.70;99.90
3644;DHT22;1838;50.742;7.158;2023-11-18T03:00:29;5.80;99.90
3644;DHT22;1838;50.742;7.158;2023-11-18T03:02:54;5.70;99.90
3644;DHT22;1838;50.742;7.158;2023-11-18T03:05:21;5.70;99.90
3644;DHT22;1838;50.742;7.158;2023-11-18T03:07:47;5.70;99.90
3644;DHT22;1838;50.742;7.158;2023-11-18T03:10:19;5.70;99.90
3644;DHT22;1838;50.742;7.158;2023-11-18T03:12:49;5.80;99.90
3644;DHT22;1838;50.742;7.158;2023-11-18T03:15:15;5.80;99.90
3644;DHT22;1838;50.742;7.158;2023-11-18T03:17:44;5.80;99.90
3644;DHT22;1838;50.742;7.158;2023-11-18T03:20:11;5.90;99.90
3644;DHT22;1838;50.742;7.158;2023-11-18T03:22:40;5.80;99.90
3644;DHT22;1838;50.742;7.158;2023-11-18T03:25:05;5.80;99.90
3644;DHT22;1838;50.742;7.158;2023-11-18T03:27:33;5.90;99.90
3644;DHT22;1838;50.742;7.158;2023-11-18T03:29:58;5.90;99.90
3644;DHT22;1838;50.742;7.158;2023-11-18T03:32:24;5.90;99.90
3644;DHT22;1838;50.742;7.158;2023-11-18T03:34:49;5.90;99.90
3644;DHT22;1838;50.742;7.158;2023-11-18T03:37:15;5.80;99.90
3644;DHT22;1838;50.742;7.158;2023-11-18T03:39:40;5.90;99.90
3644;DHT22;1838;50.742;7.158;2023-11-18T03:42:06;5.90;99.90
3644;DHT22;1838;50.742;7.158;2023-11-18T03:44:31;5.90;99.90
3644;DHT22;1838;50.742;7.158;2023-11-18T03:46:57;5.90;99.90
3644;DHT22;1838;50.742;7.158;2023-11-18T03:49:23;5.90;99.90
3644;DHT22;1838;50.742;7.158;2023-11-18T03:51:48;5.70;99.90
3644;DHT22;1838;50.742;7.158;2023-11-18T03:54:14;5.80;99.90
3644;DHT22;1838;50.742;7.158;2023-11-18T03:56:40;5.70;99.90
3644;DHT22;1838;50.742;7.158;2023-11-18T03:59:05;5.70;99.90
3644;DHT22;1838;50.742;7.158;2023-11-18T04:01:31;5.70;99.90
3644;DHT22;1838;50.742;7.158;2023-11-18T04:03:58;5.70;99.90
3644;DHT22;1838;50.742;7.158;2023-11-18T04:06:24;5.70;99.90
3644;DHT22;1838;50.742;7.158;2023-11-18T04:08:50;5.70;99.90
3644;DHT22;1838;50.742;7.158;2023-11-18T04:11:16;5.70;99.90
3644;DHT22;1838;50.742;7.158;2023-11-18T04:13:42;5.80;99.90
3644;DHT22;1838;50.742;7.158;2023-11-18T04:16:12;5.80;99.90
3644;DHT22;1838;50.742;7.158;2023-11-18T04:18:39;5.80;99.90
3644;DHT22;1838;50.742;7.158;2023-11-18T04:21:09;5.90;99.90
3644;DHT22;1838;50.742;7.158;2023-11-18T04:23:42;5.80;99.90
3644;DHT22;1838;50.742;7.158;2023-11-18T04:26:08;5.70;99.90
3644;DHT22;1838;50.742;7.158;2023-11-18T04:28:35;5.60;99.90
3644;DHT22;1838;50.742;7.158;2023-11-18T04:31:01;5.60;99.90
3644;DHT22;1838;50.742;7.158;2023-11-18T04:33:28;5.60;99.90
3644;DHT22;1838;50.742;7.158;2023-11-18T04:35:54;5.50;99.90
3644;DHT22;1838;50.742;7.158;2023-11-18T04:38:22;5.50;99.90
3644;DHT22;1838;50.742;7.158;2023-11-18T04:40:48;5.50;99.90
3644;DHT22;1838;50.742;7.158;2023-11-18T04:43:13;5.50;99.90
3644;DHT22;1838;50.742;7.158;2023-11-18T04:45:41;5.50;99.90
3644;DHT22;1838;50.742;7.158;2023-11-18T04:48:07;5.60;99.90
3644;DHT22;1838;50.742;7.158;2023-11-18T04:50:33;5.60;99.90
3644;DHT22;1838;50.742;7.158;2023-11-18T04:52:59;5.60;99.90
3644;DHT22;1838;50.742;7.158;2023-11-18T04:55:24;5.70;99.90
3644;DHT22;1838;50.742;7.158;2023-11-18T04:57:54;5.70;99.90
3644;DHT22;1838;50.742;7.158;2023-11-18T05:00:20;5.70;99.90
3644;DHT22;1838;50.742;7.158;2023-11-18T05:02:46;5.70;99.90
3644;DHT22;1838;50.742;7.158;2023-11-18T05:05:14;5.70;99.90
3644;DHT22;1838;50.742;7.158;2023-11-18T05:07:40;5.70;99.90
3644;DHT22;1838;50.742;7.158;2023-11-18T05:10:06;5.70;99.90
3644;DHT22;1838;50.742;7.158;2023-11-18T05:12:33;5.70;99.90
3644;DHT22;1838;50.742;7.158;2023-11-18T05:14:59;5.70;99.90
3644;DHT22;1838;50.742;7.158;2023-11-18T05:17:26;5.70;99.90
3644;DHT22;1838;50.742;7.158;2023-11-18T05:19:52;5.70;99.90
3644;DHT22;1838;50.742;7.158;2023-11-18T05:22:17;5.70;99.90
3644;DHT22;1838;50.742;7.158;2023-11-18T05:24:43;5.70;99.90
3644;DHT22;1838;50.742;7.158;2023-11-18T05:27:09;5.70;99.90
3644;DHT22;1838;50.742;7.158;2023-11-18T05:29:34;5.60;99.90
3644;DHT22;1838;50.742;7.158;2023-11-18T05:32:00;5.60;99.90
3644;DHT22;1838;50.742;7.158;2023-11-18T05:34:26;5.60;99.90
3644;DHT22;1838;50.742;7.158;2023-11-18T05:36:51;5.60;99.90
3644;DHT22;1838;50.742;7.158;2023-11-18T05:39:20;5.60;99.90
3644;DHT22;1838;50.742;7.158;2023-11-18T05:41:46;5.60;99.90
3644;DHT22;1838;50.742;7.158;2023-11-18T05:44:15;5.60;99.90
3644;DHT22;1838;50.742;7.158;2023-11-18T05:46:47;5.70;99.90
3644;DHT22;1838;50.742;7.158;2023-11-18T05:49:13;5.60;99.90
3644;DHT22;1838;50.742;7.158;2023-11-18T05:51:39;5.70;99.90
3644;DHT22;1838;50.742;7.158;2023-11-18T05:54:08;5.60;99.90
3644;DHT22;1838;50.742;7.158;2023-11-18T05:56:34;5.70;99.90
3644;DHT22;1838;50.742;7.158;2023-11-18T05:59:00;5.70;99.90
3644;DHT22;1838;50.742;7.158;2023-11-18T06:01:29;5.70;99.90
3644;DHT22;1838;50.742;7.158;2023-11-18T06:03:54;5.70;99.90
3644;DHT22;1838;50.742;7.158;2023-11-18T06:06:20;5.70;99.90
3644;DHT22;1838;50.742;7.158;2023-11-18T06:08:47;5.70;99.90
3644;DHT22;1838;50.742;7.158;2023-11-18T06:11:14;5.70;99.90
3644;DHT22;1838;50.742;7.158;2023-11-18T06:13:48;5.80;99.90
3644;DHT22;1838;50.742;7.158;2023-11-18T06:18:47;5.80;99.90
3644;DHT22;1838;50.742;7.158;2023-11-18T06:21:14;5.90;99.90
3644;DHT22;1838;50.742;7.158;2023-11-18T06:23:40;5.90;99.90
3644;DHT22;1838;50.742;7.158;2023-11-18T06:26:07;5.90;99.90
3644;DHT22;1838;50.742;7.158;2023-11-18T06:28:32;6.00;99.90
3644;DHT22;1838;50.742;7.158;2023-11-18T06:30:59;6.00;99.90
3644;DHT22;1838;50.742;7.158;2023-11-18T06:33:25;6.10;99.90
3644;DHT22;1838;50.742;7.158;2023-11-18T06:35:53;6.10;99.90
3644;DHT22;1838;50.742;7.158;2023-11-18T06:38:21;6.10;99.90
3644;DHT22;1838;50.742;7.158;2023-11-18T06:40:46;6.10;99.90
3644;DHT22;1838;50.742;7.158;2023-11-18T06:43:12;6.10;99.90
3644;DHT22;1838;50.742;7.158;2023-11-18T06:45:42;6.10;99.90
3644;DHT22;1838;50.742;7.158;2023-11-18T06:48:08;6.10;99.90
3644;DHT22;1838;50.742;7.158;2023-11-18T06:50:34;6.20;99.90
3644;DHT22;1838;50.742;7.158;2023-11-18T06:53:00;6.20;99.90
3644;DHT22;1838;50.742;7.158;2023-11-18T06:55:26;6.20;99.90
3644;DHT22;1838;50.742;7.158;2023-11-18T06:57:52;6.10;99.90
3644;DHT22;1838;50.742;7.158;2023-11-18T07:00:20;6.20;99.90
3644;DHT22;1838;50.742;7.158;2023-11-18T07:02:47;6.20;99.90
3644;DHT22;1838;50.742;7.158;2023-11-18T07:05:12;6.30;99.90
3644;DHT22;1838;50.742;7.158;2023-11-18T07:07:40;6.30;99.90
3644;DHT22;1838;50.742;7.158;2023-11-18T07:10:06;6.40;99.90
3644;DHT22;1838;50.742;7.158;2023-11-18T07:12:32;6.40;99.90
3644;DHT22;1838;50.742;7.158;2023-11-18T07:14:59;6.50;99.90
3644;DHT22;1838;50.742;7.158;2023-11-18T07:17:26;6.50;99.90
3644;DHT22;1838;50.742;7.158;2023-11-18T07:19:51;6.60;99.90
3644;DHT22;1838;50.742;7.158;2023-11-18T07:22:17;6.60;99.90
3644;DHT22;1838;50.742;7.158;2023-11-18T07:24:42;6.70;99.90
3644;DHT22;1838;50.742;7.158;2023-11-18T07:27:08;6.70;99.90
3644;DHT22;1838;50.742;7.158;2023-11-18T07:29:36;6.70;99.90
3644;DHT22;1838;50.742;7.158;2023-11-18T07:32:02;6.70;99.90
3644;DHT22;1838;50.742;7.158;2023-11-18T07:34:33;6.80;99.90
3644;DHT22;1838;50.742;7.158;2023-11-18T07:36:59;6.90;99.90
3644;DHT22;1838;50.742;7.158;2023-11-18T07:39:24;6.90;99.90
3644;DHT22;1838;50.742;7.158;2023-11-18T07:42:09;6.90;99.90
3644;DHT22;1838;50.742;7.158;2023-11-18T07:44:35;6.90;99.90
3644;DHT22;1838;50.742;7.158;2023-11-18T07:47:00;7.00;99.90
3644;DHT22;1838;50.742;7.158;2023-11-18T07:49:26;7.00;99.90
3644;DHT22;1838;50.742;7.158;2023-11-18T07:51:51;7.00;99.90
3644;DHT22;1838;50.742;7.158;2023-11-18T07:54:17;7.10;99.90
3644;DHT22;1838;50.742;7.158;2023-11-18T07:56:43;7.00;99.90
3644;DHT22;1838;50.742;7.158;2023-11-18T07:59:12;7.00;99.90
3644;DHT22;1838;50.742;7.158;2023-11-18T08:01:41;6.90;99.90
3644;DHT22;1838;50.742;7.158;2023-11-18T08:04:10;6.90;99.90
3644;DHT22;1838;50.742;7.158;2023-11-18T08:06:35;7.00;99.90
3644;DHT22;1838;50.742;7.158;2023-11-18T08:09:01;7.00;99.90
3644;DHT22;1838;50.742;7.158;2023-11-18T08:11:28;7.00;99.90
3644;DHT22;1838;50.742;7.158;2023-11-18T08:13:54;7.00;99.90
3644;DHT22;1838;50.742;7.158;2023-11-18T08:16:20;7.00;99.90
3644;DHT22;1838;50.742;7.158;2023-11-18T08:18:47;7.00;99.90
3644;DHT22;1838;50.742;7.158;2023-11-18T08:21:13;7.00;99.90
3644;DHT22;1838;50.742;7.158;2023-11-18T08:23:39;7.10;99.90
3644;DHT22;1838;50.742;7.158;2023-11-18T08:26:05;7.10;99.90
3644;DHT22;1838;50.742;7.158;2023-11-18T08:28:31;7.20;99.90
3644;DHT22;1838;50.742;7.158;2023-11-18T08:30:56;7.20;99.90
3644;DHT22;1838;50.742;7.158;2023-11-18T08:33:22;7.30;99.90
3644;DHT22;1838;50.742;7.158;2023-11-18T08:35:49;7.30;99.90
3644;DHT22;1838;50.742;7.158;2023-11-18T08:38:15;7.40;99.90
3644;DHT22;1838;50.742;7.158;2023-11-18T08:40:40;7.50;99.90
3644;DHT22;1838;50.742;7.158;2023-11-18T08:43:08;7.40;99.90
3644;DHT22;1838;50.742;7.158;2023-11-18T08:45:33;7.50;99.90
3644;DHT22;1838;50.742;7.158;2023-11-18T08:48:02;7.50;99.90
3644;DHT22;1838;50.742;7.158;2023-11-18T08:50:29;7.50;99.90
3644;DHT22;1838;50.742;7.158;2023-11-18T08:52:56;7.50;99.90
3644;DHT22;1838;50.742;7.158;2023-11-18T08:55:27;7.50;99.90
3644;DHT22;1838;50.742;7.158;2023-11-18T08:58:08;7.50;99.90
3644;DHT22;1838;50.742;7.158;2023-11-18T09:00:54;7.60;99.90
3644;DHT22;1838;50.742;7.158;2023-11-18T09:03:22;7.60;99.90
3644;DHT22;1838;50.742;7.158;2023-11-18T09:05:53;7.50;99.90
3644;DHT22;1838;50.742;7.158;2023-11-18T09:08:31;7.50;99.90
3644;DHT22;1838;50.742;7.158;2023-11-18T09:11:09;7.50;99.90
3644;DHT22;1838;50.742;7.158;2023-11-18T09:13:43;7.60;99.90
3644;DHT22;1838;50.742;7.158;2023-11-18T09:16:11;7.60;99.90
3644;DHT22;1838;50.742;7.158;2023-11-18T09:18:38;7.50;99.90
3644;DHT22;1838;50.742;7.158;2023-11-18T09:21:06;7.60;99.90
3644;DHT22;1838;50.742;7.158;2023-11-18T09:23:33;7.50;99.90
3644;DHT22;1838;50.742;7.158;2023-11-18T09:26:03;7.50;99.90
3644;DHT22;1838;50.742;7.158;2023-11-18T09:28:36;7.60;99.90
3644;DHT22;1838;50.742;7.158;2023-11-18T09:31:06;7.60;99.90
3644;DHT22;1838;50.742;7.158;2023-11-18T09:33:36;7.60;99.90
3644;DHT22;1838;50.742;7.158;2023-11-18T09:36:04;7.60;99.90
3644;DHT22;1838;50.742;7.158;2023-11-18T09:38:37;7.60;99.90
3644;DHT22;1838;50.742;7.158;2023-11-18T09:41:04;7.70;99.90
3644;DHT22;1838;50.742;7.158;2023-11-18T09:43:36;7.70;99.90
3644;DHT22;1838;50.742;7.158;2023-11-18T09:46:28;7.70;99.90
3644;DHT22;1838;50.742;7.158;2023-11-18T09:51:44;7.80;99.90
3644;DHT22;1838;50.742;7.158;2023-11-18T09:54:30;7.70;99.90
3644;DHT22;1838;50.742;7.158;2023-11-18T09:57:07;7.80;99.90
3644;DHT22;1838;50.742;7.158;2023-11-18T09:59:54;7.90;99.90
3644;DHT22;1838;50.742;7.158;2023-11-18T10:02:24;7.90;99.90
3644;DHT22;1838;50.742;7.158;2023-11-18T10:04:51;7.90;99.90
3644;DHT22;1838;50.742;7.158;2023-11-18T10:07:24;7.90;99.90
3644;DHT22;1838;50.742;7.158;2023-11-18T10:09:56;8.00;99.90
3644;DHT22;1838;50.742;7.158;2023-11-18T10:12:23;8.00;99.90
3644;DHT22;1838;50.742;7.158;2023-11-18T10:14:49;8.10;99.90
3644;DHT22;1838;50.742;7.158;2023-11-18T10:17:17;8.10;99.90
3644;DHT22;1838;50.742;7.158;2023-11-18T10:20:10;8.00;99.90
3644;DHT22;1838;50.742;7.158;2023-11-18T10:22:39;8.10;99.90
3644;DHT22;1838;50.742;7.158;2023-11-18T10:25:06;8.10;99.90
3644;DHT22;1838;50.742;7.158;2023-11-18T10:27:31;8.10;99.90
3644;DHT22;1838;50.742;7.158;2023-11-18T10:30:04;8.10;99.90
3644;DHT22;1838;50.742;7.158;2023-11-18T10:32:30;8.20;99.90
3644;DHT22;1838;50.742;7.158;2023-11-18T10:35:01;8.20;99.90
3644;DHT22;1838;50.742;7.158;2023-11-18T10:37:27;8.30;99.90
3644;DHT22;1838;50.742;7.158;2023-11-18T10:39:56;8.30;99.90
3644;DHT22;1838;50.742;7.158;2023-11-18T10:42:26;8.30;99.90
3644;DHT22;1838;50.742;7.158;2023-11-18T10:44:59;8.30;99.90
3644;DHT22;1838;50.742;7.158;2023-11-18T10:47:28;8.30;99.90
3644;DHT22;1838;50.742;7.158;2023-11-18T10:49:54;8.30;99.90
3644;DHT22;1838;50.742;7.158;2023-11-18T10:52:24;8.30;99.90
3644;DHT22;1838;50.742;7.158;2023-11-18T10:55:01;8.30;99.90
3644;DHT22;1838;50.742;7.158;2023-11-18T10:57:36;8.30;99.90
3644;DHT22;1838;50.742;7.158;2023-11-18T11:00:05;8.30;99.90
3644;DHT22;1838;50.742;7.158;2023-11-18T11:02:44;8.30;99.90
3644;DHT22;1838;50.742;7.158;2023-11-18T11:05:14;8.30;99.90
3644;DHT22;1838;50.742;7.158;2023-11-18T11:07:53;8.20;99.90
3644;DHT22;1838;50.742;7.158;2023-11-18T11:10:19;8.30;99.90
3644;DHT22;1838;50.742;7.158;2023-11-18T11:12:54;8.30;99.90
3644;DHT22;1838;50.742;7.158;2023-11-18T11:15:23;8.30;99.90
3644;DHT22;1838;50.742;7.158;2023-11-18T11:17:54;8.30;99.90
3644;DHT22;1838;50.742;7.158;2023-11-18T11:20:22;8.30;99.90
3644;DHT22;1838;50.742;7.158;2023-11-18T11:23:21;8.20;99.90
3644;DHT22;1838;50.742;7.158;2023-11-18T11:28:22;8.30;99.90
3644;DHT22;1838;50.742;7.158;2023-11-18T11:30:58;8.30;99.90
3644;DHT22;1838;50.742;7.158;2023-11-18T11:33:42;8.30;99.90
3644;DHT22;1838;50.742;7.158;2023-11-18T11:36:12;8.30;99.90
3644;DHT22;1838;50.742;7.158;2023-11-18T11:38:38;8.30;99.90
3644;DHT22;1838;50.742;7.158;2023-11-18T11:41:05;8.30;99.90
3644;DHT22;1838;50.742;7.158;2023-11-18T11:43:34;8.30;99.90
3644;DHT22;1838;50.742;7.158;2023-11-18T11:46:01;8.30;99.90
3644;DHT22;1838;50.742;7.158;2023-11-18T11:48:30;8.30;99.90
3644;DHT22;1838;50.742;7.158;2023-11-18T11:54:06;8.50;99.90
3644;DHT22;1838;50.742;7.158;2023-11-18T11:56:47;8.50;99.90
3644;DHT22;1838;50.742;7.158;2023-11-18T11:59:25;8.50;99.90
3644;DHT22;1838;50.742;7.158;2023-11-18T12:02:02;8.50;99.90
3644;DHT22;1838;50.742;7.158;2023-11-18T12:04:34;8.50;99.90
3644;DHT22;1838;50.742;7.158;2023-11-18T12:07:06;8.40;99.90
3644;DHT22;1838;50.742;7.158;2023-11-18T12:09:36;8.50;99.90
3644;DHT22;1838;50.742;7.158;2023-11-18T12:12:05;8.60;99.90
3644;DHT22;1838;50.742;7.158;2023-11-18T12:14:50;8.60;99.90
3644;DHT22;1838;50.742;7.158;2023-11-18T12:17:18;8.70;99.90
3644;DHT22;1838;50.742;7.158;2023-11-18T12:19:47;8.60;99.90
3644;DHT22;1838;50.742;7.158;2023-11-18T12:22:15;8.60;99.90
3644;DHT22;1838;50.742;7.158;2023-11-18T12:33:01;8.60;99.90
3644;DHT22;1838;50.742;7.158;2023-11-18T12:41:33;8.80;99.90
3644;DHT22;1838;50.742;7.158;2023-11-18T12:46:59;8.80;99.90
3644;DHT22;1838;50.742;7.158;2023-11-18T12:49:38;8.80;99.90
3644;DHT22;1838;50.742;7.158;2023-11-18T12:52:07;8.80;99.90
3644;DHT22;1838;50.742;7.158;2023-11-18T12:54:34;8.80;99.90
3644;DHT22;1838;50.742;7.158;2023-11-18T12:57:03;8.90;99.90
3644;DHT22;1838;50.742;7.158;2023-11-18T12:59:35;8.90;99.90
3644;DHT22;1838;50.742;7.158;2023-11-18T13:02:01;9.00;99.90
3644;DHT22;1838;50.742;7.158;2023-11-18T13:04:33;9.00;99.90
3644;DHT22;1838;50.742;7.158;2023-11-18T13:07:00;9.00;99.90
3644;DHT22;1838;50.742;7.158;2023-11-18T13:09:26;9.00;99.90
3644;DHT22;1838;50.742;7.158;2023-11-18T13:12:00;9.10;99.90
3644;DHT22;1838;50.742;7.158;2023-11-18T13:14:30;9.10;99.90
3644;DHT22;1838;50.742;7.158;2023-11-18T13:16:57;9.10;99.90
3644;DHT22;1838;50.742;7.158;2023-11-18T13:19:27;9.10;99.90
3644;DHT22;1838;50.742;7.158;2023-11-18T13:21:59;9.20;99.90
3644;DHT22;1838;50.742;7.158;2023-11-18T13:24:26;9.30;99.90
3644;DHT22;1838;50.742;7.158;2023-11-18T13:26:54;9.30;99.90
3644;DHT22;1838;50.742;7.158;2023-11-18T13:29:24;9.30;99.90
3644;DHT22;1838;50.742;7.158;2023-11-18T13:31:50;9.20;99.90
3644;DHT22;1838;50.742;7.158;2023-11-18T13:34:20;9.10;99.90
3644;DHT22;1838;50.742;7.158;2023-11-18T13:36:47;9.10;99.90
3644;DHT22;1838;50.742;7.158;2023-11-18T13:39:19;9.10;99.90
3644;DHT22;1838;50.742;7.158;2023-11-18T13:41:49;9.00;99.90
3644;DHT22;1838;50.742;7.158;2023-11-18T13:44:37;8.90;99.90
3644;DHT22;1838;50.742;7.158;2023-11-18T13:47:07;8.90;99.90
3644;DHT22;1838;50.742;7.158;2023-11-18T13:49:33;8.90;99.90
3644;DHT22;1838;50.742;7.158;2023-11-18T13:52:02;8.90;99.90
3644;DHT22;1838;50.742;7.158;2023-11-18T13:54:28;8.90;99.90
3644;DHT22;1838;50.742;7.158;2023-11-18T13:56:58;8.90;99.90
3644;DHT22;1838;50.742;7.158;2023-11-18T13:59:26;8.90;99.90
3644;DHT22;1838;50.742;7.158;2023-11-18T14:01:53;8.90;99.90
3644;DHT22;1838;50.742;7.158;2023-11-18T14:04:22;8.90;99.90
3644;DHT22;1838;50.742;7.158;2023-11-18T14:06:52;8.90;99.90
3644;DHT22;1838;50.742;7.158;2023-11-18T14:09:19;8.80;99.90
3644;DHT22;1838;50.742;7.158;2023-11-18T14:11:47;8.80;99.90
3644;DHT22;1838;50.742;7.158;2023-11-18T14:14:13;8.80;99.90
3644;DHT22;1838;50.742;7.158;2023-11-18T14:16:39;8.80;99.90
3644;DHT22;1838;50.742;7.158;2023-11-18T14:19:05;8.90;99.90
3644;DHT22;1838;50.742;7.158;2023-11-18T14:21:32;8.80;99.90
3644;DHT22;1838;50.742;7.158;2023-11-18T14:23:57;8.80;99.90
3644;DHT22;1838;50.742;7.158;2023-11-18T14:26:25;8.80;99.90
3644;DHT22;1838;50.742;7.158;2023-11-18T14:28:52;8.80;99.90
3644;DHT22;1838;50.742;7.158;2023-11-18T14:31:18;8.80;99.90
3644;DHT22;1838;50.742;7.158;2023-11-18T14:33:43;8.80;99.90
3644;DHT22;1838;50.742;7.158;2023-11-18T14:36:09;8.80;99.90
3644;DHT22;1838;50.742;7.158;2023-11-18T14:38:36;8.80;99.90
3644;DHT22;1838;50.742;7.158;2023-11-18T14:41:03;8.80;99.90
3644;DHT22;1838;50.742;7.158;2023-11-18T14:43:30;8.90;99.90
3644;DHT22;1838;50.742;7.158;2023-11-18T14:45:55;8.80;99.90
3644;DHT22;1838;50.742;7.158;2023-11-18T14:48:21;8.80;99.90
3644;DHT22;1838;50.742;7.158;2023-11-18T14:50:47;8.90;99.90
3644;DHT22;1838;50.742;7.158;2023-11-18T14:53:12;8.90;99.90
3644;DHT22;1838;50.742;7.158;2023-11-18T14:55:38;8.90;99.90
3644;DHT22;1838;50.742;7.158;2023-11-18T14:58:04;8.90;99.90
3644;DHT22;1838;50.742;7.158;2023-11-18T15:00:30;8.90;99.90
3644;DHT22;1838;50.742;7.158;2023-11-18T15:02:58;8.80;99.90
3644;DHT22;1838;50.742;7.158;2023-11-18T15:05:23;8.80;99.90
3644;DHT22;1838;50.742;7.158;2023-11-18T15:07:51;8.70;99.90
3644;DHT22;1838;50.742;7.158;2023-11-18T15:10:22;8.70;99.90
3644;DHT22;1838;50.742;7.158;2023-11-18T15:12:48;8.60;99.90
3644;DHT22;1838;50.742;7.158;2023-11-18T15:15:14;8.50;99.90
3644;DHT22;1838;50.742;7.158;2023-11-18T15:17:46;8.60;99.90
3644;DHT22;1838;50.742;7.158;2023-11-18T15:20:17;8.60;99.90
3644;DHT22;1838;50.742;7.158;2023-11-18T15:22:46;8.60;99.90
3644;DHT22;1838;50.742;7.158;2023-11-18T15:25:12;8.50;99.90
3644;DHT22;1838;50.742;7.158;2023-11-18T15:27:42;8.50;99.90
3644;DHT22;1838;50.742;7.158;2023-11-18T15:30:11;8.50;99.90
3644;DHT22;1838;50.742;7.158;2023-11-18T15:32:38;8.50;99.90
3644;DHT22;1838;50.742;7.158;2023-11-18T15:35:04;8.40;99.90
3644;DHT22;1838;50.742;7.158;2023-11-18T15:37:37;8.40;99.90
3644;DHT22;1838;50.742;7.158;2023-11-18T15:40:05;8.40;99.90
3644;DHT22;1838;50.742;7.158;2023-11-18T15:42:36;8.40;99.90
3644;DHT22;1838;50.742;7.158;2023-11-18T15:45:02;8.40;99.90
3644;DHT22;1838;50.742;7.158;2023-11-18T15:47:28;8.40;99.90
3644;DHT22;1838;50.742;7.158;2023-11-18T15:49:54;8.40;99.90
3644;DHT22;1838;50.742;7.158;2023-11-18T15:52:19;8.30;99.90
3644;DHT22;1838;50.742;7.158;2023-11-18T15:54:45;8.30;99.90
3644;DHT22;1838;50.742;7.158;2023-11-18T15:57:12;8.40;99.90
3644;DHT22;1838;50.742;7.158;2023-11-18T15:59:38;8.40;99.90
3644;DHT22;1838;50.742;7.158;2023-11-18T16:02:04;8.40;99.90
3644;DHT22;1838;50.742;7.158;2023-11-18T16:04:31;8.40;99.90
3644;DHT22;1838;50.742;7.158;2023-11-18T16:06:56;8.40;99.90
3644;DHT22;1838;50.742;7.158;2023-11-18T16:09:22;8.40;99.90
3644;DHT22;1838;50.742;7.158;2023-11-18T16:11:47;8.30;99.90
3644;DHT22;1838;50.742;7.158;2023-11-18T16:14:14;8.40;99.90
3644;DHT22;1838;50.742;7.158;2023-11-18T16:16:41;8.40;99.90
3644;DHT22;1838;50.742;7.158;2023-11-18T16:19:07;8.50;99.90
3644;DHT22;1838;50.742;7.158;2023-11-18T16:21:36;8.40;99.90
3644;DHT22;1838;50.742;7.158;2023-11-18T16:24:03;8.40;99.90
3644;DHT22;1838;50.742;7.158;2023-11-18T16:26:28;8.50;99.90
3644;DHT22;1838;50.742;7.158;2023-11-18T16:28:54;8.50;99.90
3644;DHT22;1838;50.742;7.158;2023-11-18T16:31:21;8.50;99.90
3644;DHT22;1838;50.742;7.158;2023-11-18T16:33:47;8.50;99.90
3644;DHT22;1838;50.742;7.158;2023-11-18T16:36:21;8.50;99.90
3644;DHT22;1838;50.742;7.158;2023-11-18T16:38:51;8.50;99.90
3644;DHT22;1838;50.742;7.158;2023-11-18T16:41:18;8.50;99.90
3644;DHT22;1838;50.742;7.158;2023-11-18T16:43:43;8.50;99.90
3644;DHT22;1838;50.742;7.158;2023-11-18T16:46:11;8.50;99.90
3644;DHT22;1838;50.742;7.158;2023-11-18T16:48:36;8.50;99.90
3644;DHT22;1838;50.742;7.158;2023-11-18T16:51:02;8.60;99.90
3644;DHT22;1838;50.742;7.158;2023-11-18T16:53:27;8.60;99.90